Time;durP1;ratioP1;P1;durP2;ratioP2;P2;SDS_P1;SDS_P2;PMS_P1;PMS_P2;Temp;Humidity;BMP_temperature;BMP_pressure;BME280_temperature;BME280_humidity;BME280_pressure;Samples;Min_cycle;Max_cycle;Signal;HPM_P1;HPM_P2
2023/10/20 00:00:18;;;;;;;;;0.00;0.00;;;;;16.97;100.00;97824.09;5056774;28;45482;-77
2023/10/20 00:02:44;;;;;;;;;0.00;0.00;;;;;17.32;100.00;97894.63;5068113;28;45485;-77
2023/10/20 00:05:10;;;;;;;;;0.00;0.00;;;;;17.08;100.00;97885.06;5074625;28;45396;-76
2023/10/20 00:07:37;;;;;;;;;0.00;0.00;;;;;17.05;100.00;97856.03;5056479;28;46889;-75
2023/10/20 00:10:09;;;;;;;;;0.00;0.00;;;;;17.09;100.00;97870.69;5060225;28;45408;-75
2023/10/20 00:12:35;;;;;;;;;0.00;0.00;;;;;16.81;100.00;97824.28;5050940;28;45481;-75
2023/10/20 00:15:01;;;;;;;;;0.00;0.00;;;;;17.00;100.00;97855.78;5052416;28;45455;-75
2023/10/20 00:17:26;;;;;;;;;0.00;0.00;;;;;17.02;100.00;97865.25;5069343;28;46894;-75
2023/10/20 00:19:51;;;;;;;;;0.00;0.00;;;;;16.92;100.00;97859.34;5061178;28;45451;-75
2023/10/20 00:22:17;;;;;;;;;0.00;0.00;;;;;16.80;100.00;97820.78;5068264;28;46339;-75
2023/10/20 00:24:45;;;;;;;;;0.00;0.00;;;;;16.74;100.00;97818.88;5077726;28;54475;-75
2023/10/20 00:27:10;;;;;;;;;0.00;0.00;;;;;16.83;100.00;97825.75;5070703;28;46207;-75
2023/10/20 00:29:35;;;;;;;;;0.00;0.00;;;;;16.79;100.00;97813.78;5073771;28;45268;-75
2023/10/20 00:32:04;;;;;;;;;2.00;0.00;;;;;16.85;100.00;97825.59;5056571;28;45470;-75
2023/10/20 00:34:30;;;;;;;;;0.00;0.00;;;;;16.61;100.00;97802.66;5060319;28;45867;-75
2023/10/20 00:36:56;;;;;;;;;0.00;0.00;;;;;16.72;100.00;97820.88;5060811;28;45467;-74
2023/10/20 00:39:23;;;;;;;;;0.00;0.00;;;;;16.81;100.00;97832.31;5058301;28;45360;-75
2023/10/20 00:41:48;;;;;;;;;0.00;0.00;;;;;16.74;100.00;97834.03;5078700;28;45231;-74
2023/10/20 00:44:14;;;;;;;;;0.00;0.00;;;;;16.63;100.00;97820.13;5076882;28;45484;-75
2023/10/20 00:46:47;;;;;;;;;0.00;0.00;;;;;16.69;100.00;97833.78;5077251;28;45427;-74
2023/10/20 00:49:13;;;;;;;;;0.00;0.00;;;;;16.59;100.00;97823.34;5063910;28;45640;-75
2023/10/20 00:51:39;;;;;;;;;0.00;0.00;;;;;16.57;100.00;97833.38;5064686;28;45323;-75
2023/10/20 00:54:06;;;;;;;;;0.00;0.00;;;;;16.57;100.00;97844.88;5078153;28;45308;-75
2023/10/20 00:56:32;;;;;;;;;0.00;0.00;;;;;16.53;100.00;97842.72;5075248;28;45690;-75
2023/10/20 00:58:58;;;;;;;;;0.00;0.00;;;;;16.57;100.00;97844.88;5058702;28;45678;-75
2023/10/20 01:01:24;;;;;;;;;0.00;0.00;;;;;16.52;100.00;97835.75;5070933;28;45370;-75
2023/10/20 01:03:50;;;;;;;;;0.00;0.00;;;;;16.42;100.00;97825.34;5077999;28;45479;-75
2023/10/20 01:06:15;;;;;;;;;0.00;0.00;;;;;16.38;100.00;97816.03;5070144;28;45474;-75
2023/10/20 01:08:43;;;;;;;;;0.00;0.00;;;;;16.42;100.00;97825.34;5072318;28;45491;-75
2023/10/20 01:11:09;;;;;;;;;0.00;0.00;;;;;16.38;100.00;97799.19;5074242;28;45233;-75
2023/10/20 01:13:36;;;;;;;;;1.00;0.00;;;;;16.38;100.00;97793.88;5055748;28;45553;-75
2023/10/20 01:16:02;;;;;;;;;1.00;0.00;;;;;16.21;100.00;97761.19;5081935;28;46017;-75
2023/10/20 01:18:28;;;;;;;;;0.00;0.00;;;;;16.35;100.00;97779.06;5057735;28;45392;-75
2023/10/20 01:20:54;;;;;;;;;0.00;0.00;;;;;16.29;100.00;97779.78;5062211;28;46963;-75
2023/10/20 01:23:19;;;;;;;;;0.00;0.00;;;;;16.34;100.00;97795.22;5067003;28;45549;-75
2023/10/20 01:25:45;;;;;;;;;0.00;0.00;;;;;16.35;100.00;97789.72;5050270;28;45555;-76
2023/10/20 01:28:10;;;;;;;;;0.00;0.00;;;;;16.33;100.00;97790.94;5067720;28;45350;-75
2023/10/20 01:30:35;;;;;;;;;2.00;0.00;;;;;16.20;100.00;97769.38;5069054;28;45320;-75
2023/10/20 01:33:01;;;;;;;;;0.00;0.00;;;;;16.25;100.00;97777.66;5055135;28;45420;-75
2023/10/20 01:35:26;;;;;;;;;0.00;0.00;;;;;16.16;100.00;97751.06;5061721;28;45502;-76
2023/10/20 01:37:51;;;;;;;;;0.00;0.00;;;;;16.25;100.00;97762.50;5058519;28;45335;-75
2023/10/20 01:40:18;;;;;;;;;0.00;0.00;;;;;16.24;100.00;97763.50;5068439;28;45293;-76
2023/10/20 01:42:44;;;;;;;;;0.00;0.00;;;;;16.22;100.00;97760.19;5081398;28;45248;-76
2023/10/20 01:45:12;;;;;;;;;0.00;0.00;;;;;16.13;100.00;97740.75;5073742;28;45591;-77
2023/10/20 01:47:38;;;;;;;;;0.00;0.00;;;;;16.00;100.00;97721.91;5058798;28;56669;-76
2023/10/20 01:50:04;;;;;;;;;0.00;0.00;;;;;16.07;100.00;97735.31;5063223;28;45550;-76
2023/10/20 01:52:29;;;;;;;;;0.00;0.00;;;;;16.14;100.00;97730.94;5080438;28;45470;-75
2023/10/20 01:54:54;;;;;;;;;0.00;0.00;;;;;16.13;100.00;97726.63;5079987;28;46305;-75
2023/10/20 01:57:20;;;;;;;;;0.00;0.00;;;;;16.16;100.00;97729.72;5077034;28;52166;-76
2023/10/20 01:59:45;;;;;;;;;0.00;0.00;;;;;15.92;100.00;97694.50;5063432;28;45371;-75
2023/10/20 02:02:11;;;;;;;;;2.00;0.00;;;;;16.08;100.00;97721.00;5060507;28;45340;-75
2023/10/20 02:04:36;;;;;;;;;0.00;0.00;;;;;15.74;100.00;97662.84;5073735;28;45745;-76
2023/10/20 02:07:02;;;;;;;;;0.00;0.00;;;;;16.08;100.00;97715.66;5074777;28;45498;-75
2023/10/20 02:09:27;;;;;;;;;1.00;0.00;;;;;16.05;100.00;97708.03;5044178;28;46815;-75
2023/10/20 02:11:56;;;;;;;;;0.00;0.00;;;;;16.02;100.00;97692.41;5076421;28;49734;-75
2023/10/20 02:14:22;;;;;;;;;0.00;0.00;;;;;16.07;100.00;97676.66;5076800;28;46609;-76
2023/10/20 02:16:48;;;;;;;;;0.00;0.00;;;;;16.00;100.00;97665.13;5080642;28;45453;-75
2023/10/20 02:19:15;;;;;;;;;0.00;0.00;;;;;16.02;100.00;97658.59;5047600;28;52116;-76
2023/10/20 02:21:40;;;;;;;;;0.00;0.00;;;;;15.86;100.00;97631.28;5065631;28;45384;-76
2023/10/20 02:24:05;;;;;;;;;0.00;0.00;;;;;15.98;100.00;97643.94;5080660;28;45542;-75
2023/10/20 02:26:31;;;;;;;;;0.00;0.00;;;;;16.01;100.00;97654.25;5058181;28;45270;-76
2023/10/20 02:28:57;;;;;;;;;0.00;0.00;;;;;15.99;100.00;97650.13;5068614;28;45297;-76
2023/10/20 02:31:23;;;;;;;;;0.00;0.00;;;;;15.89;100.00;97637.06;5077720;28;56202;-76
2023/10/20 02:33:48;;;;;;;;;0.00;0.00;;;;;15.91;100.00;97628.88;5081816;28;45275;-76
2023/10/20 02:36:21;;;;;;;;;0.00;0.00;;;;;15.93;100.00;97632.19;5062966;28;45341;-75
2023/10/20 02:38:48;;;;;;;;;0.00;0.00;;;;;15.76;100.00;97620.03;5061617;28;45380;-75
2023/10/20 02:41:16;;;;;;;;;0.00;0.00;;;;;15.82;100.00;97638.78;5068673;28;45287;-75
2023/10/20 02:43:42;;;;;;;;;0.00;0.00;;;;;15.92;100.00;97654.53;5071092;28;45427;-75
2023/10/20 02:46:08;;;;;;;;;0.00;0.00;;;;;15.68;100.00;97606.78;5074692;28;45416;-74
2023/10/20 02:48:34;;;;;;;;;0.00;0.00;;;;;15.73;100.00;97618.59;5056287;28;45531;-74
2023/10/20 02:51:09;;;;;;;;;0.00;0.00;;;;;15.88;100.00;97631.91;5065815;28;45534;-74
2023/10/20 02:53:34;;;;;;;;;0.00;0.00;;;;;15.67;100.00;97594.50;5080573;28;45399;-74
2023/10/20 02:56:00;;;;;;;;;0.00;0.00;;;;;15.77;100.00;97613.72;5046972;28;45459;-74
2023/10/20 02:58:25;;;;;;;;;0.00;0.00;;;;;15.75;100.00;97619.22;5075243;28;45296;-73
2023/10/20 03:00:51;;;;;;;;;0.00;0.00;;;;;15.83;100.00;97627.13;5076491;28;51650;-73
2023/10/20 03:03:17;;;;;;;;;0.00;0.00;;;;;15.73;100.00;97631.91;5068842;28;46549;-74
2023/10/20 03:05:43;;;;;;;;;0.00;0.00;;;;;15.78;100.00;97637.50;5078729;28;45378;-75
2023/10/20 03:08:09;;;;;;;;;0.00;0.00;;;;;15.69;100.00;97606.63;5057706;28;45341;-74
2023/10/20 03:10:35;;;;;;;;;0.00;0.00;;;;;15.70;100.00;97605.63;5053801;28;45392;-74
2023/10/20 03:13:01;;;;;;;;;0.00;0.00;;;;;15.74;100.00;97612.22;5078820;28;45639;-74
2023/10/20 03:15:26;;;;;;;;;0.00;0.00;;;;;15.79;100.00;97625.84;5067830;28;45318;-75
2023/10/20 03:17:51;;;;;;;;;0.00;0.00;;;;;15.77;100.00;97632.38;5074960;28;45466;-75
2023/10/20 03:20:17;;;;;;;;;0.00;0.00;;;;;15.73;100.00;97617.75;5068639;28;45437;-75
2023/10/20 03:22:44;;;;;;;;;0.00;0.00;;;;;15.69;100.00;97613.78;5078508;28;46374;-75
2023/10/20 03:25:10;;;;;;;;;0.00;0.00;;;;;15.75;100.00;97616.56;5072258;28;45524;-76
2023/10/20 03:27:37;;;;;;;;;0.00;0.00;;;;;15.72;100.00;97597.44;5060422;28;45344;-75
2023/10/20 03:30:05;;;;;;;;;0.00;0.00;;;;;15.69;100.00;97587.97;5058178;28;45339;-75
2023/10/20 03:32:30;;;;;;;;;0.00;0.00;;;;;15.75;100.00;97592.56;5072385;28;45383;-75
2023/10/20 03:34:55;;;;;;;;;0.00;0.00;;;;;15.72;100.00;97586.78;5071105;28;45476;-74
2023/10/20 03:37:21;;;;;;;;;0.00;0.00;;;;;15.74;100.00;97587.44;5070148;27;48424;-75
2023/10/20 03:39:47;;;;;;;;;0.00;0.00;;;;;15.63;100.00;97564.72;5056950;28;45491;-75
2023/10/20 03:42:13;;;;;;;;;0.00;0.00;;;;;15.73;100.00;97589.28;5079571;28;45219;-74
2023/10/20 03:44:39;;;;;;;;;0.33;0.00;;;;;15.65;100.00;97589.34;5057462;28;45488;-74
2023/10/20 03:47:05;;;;;;;;;0.00;0.00;;;;;15.52;100.00;97547.34;5075847;28;45577;-75
2023/10/20 03:49:34;;;;;;;;;0.00;0.00;;;;;15.60;100.00;97557.09;5055657;28;45621;-74
2023/10/20 03:51:59;;;;;;;;;0.00;0.00;;;;;15.67;100.00;97582.00;5061954;28;45546;-75
2023/10/20 03:54:25;;;;;;;;;0.00;0.00;;;;;15.61;100.00;97590.72;5070966;28;45259;-74
2023/10/20 03:56:51;;;;;;;;;0.00;0.00;;;;;15.60;100.00;97608.56;5049472;28;45446;-75
2023/10/20 03:59:16;;;;;;;;;0.00;0.00;;;;;15.61;100.00;97593.38;5055742;28;46865;-74
2023/10/20 04:01:42;;;;;;;;;0.00;0.00;;;;;15.64;100.00;97615.16;5048371;28;47909;-75
2023/10/20 04:04:09;;;;;;;;;0.00;0.00;;;;;15.59;100.00;97601.56;5057286;28;45751;-74
2023/10/20 04:06:36;;;;;;;;;0.00;0.00;;;;;15.62;100.00;97627.00;5051137;28;45448;-74
2023/10/20 04:09:07;;;;;;;;;0.67;0.00;;;;;15.39;100.00;97602.22;5065553;28;45303;-74
2023/10/20 04:11:34;;;;;;;;;0.00;0.00;;;;;15.47;100.00;97624.31;5060435;28;45939;-74
2023/10/20 04:13:59;;;;;;;;;0.00;0.00;;;;;15.57;100.00;97634.72;5065508;28;45541;-74
2023/10/20 04:16:27;;;;;;;;;0.00;0.00;;;;;15.53;100.00;97628.94;5051022;28;45471;-74
2023/10/20 04:18:53;;;;;;;;;0.00;0.00;;;;;15.55;100.00;97632.22;5063195;28;46092;-74
2023/10/20 04:21:18;;;;;;;;;0.00;0.00;;;;;15.35;100.00;97611.56;5066646;28;46776;-74
2023/10/20 04:23:43;;;;;;;;;0.00;0.00;;;;;15.55;100.00;97645.56;5074606;28;45288;-74
2023/10/20 04:26:20;;;;;;;;;0.00;0.00;;;;;15.52;100.00;97639.75;5064002;28;45897;-74
2023/10/20 04:28:47;;;;;;;;;0.00;0.00;;;;;15.54;100.00;97649.22;5074262;28;45591;-74
2023/10/20 04:46:55;;;;;;;;;0.00;0.00;;;;;15.44;100.00;97661.13;5071221;28;45339;-74
2023/10/20 04:50:47;;;;;;;;;0.00;0.00;;;;;15.35;100.00;97667.50;5069062;28;45426;-74
2023/10/20 04:53:22;;;;;;;;;0.00;0.00;;;;;15.44;100.00;97680.59;5077983;28;46017;-74
2023/10/20 05:01:17;;;;;;;;;0.00;0.00;;;;;15.41;100.00;97709.41;5076481;28;45351;-73
2023/10/20 05:03:45;;;;;;;;;0.00;0.00;;;;;15.42;100.00;97705.72;5061156;28;46265;-74
2023/10/20 05:08:57;;;;;;;;;0.00;0.00;;;;;15.36;100.00;97709.09;5062781;28;45518;-73
2023/10/20 05:11:24;;;;;;;;;1.00;0.00;;;;;15.38;100.00;97715.09;5048719;28;45535;-75
2023/10/20 05:13:52;;;;;;;;;0.00;0.00;;;;;15.37;100.00;97714.25;5075460;28;45483;-74
2023/10/20 05:16:21;;;;;;;;;0.00;0.00;;;;;15.38;100.00;97710.56;5060107;28;45513;-74
2023/10/20 05:18:47;;;;;;;;;0.00;0.00;;;;;15.26;100.00;97696.03;5057968;28;45399;-75
2023/10/20 05:21:13;;;;;;;;;1.67;0.00;;;;;15.38;100.00;97709.78;5064491;28;45601;-74
2023/10/20 05:23:39;;;;;;;;;0.00;0.00;;;;;15.37;100.00;97708.09;5067150;28;46364;-74
2023/10/20 05:26:04;;;;;;;;;0.00;0.00;;;;;15.36;100.00;97714.44;5071471;28;45241;-75
2023/10/20 05:28:31;;;;;;;;;0.00;0.00;;;;;15.32;100.00;97695.31;5063491;28;45356;-75
2023/10/20 05:31:01;;;;;;;;;0.00;0.00;;;;;15.29;100.00;97693.00;5066196;28;45331;-74
2023/10/20 05:33:29;;;;;;;;;0.00;0.00;;;;;15.36;100.00;97685.13;5060481;28;46226;-75
2023/10/20 05:36:07;;;;;;;;;0.00;0.00;;;;;15.40;100.00;97684.63;5049885;28;45634;-75
2023/10/20 05:38:35;;;;;;;;;1.00;0.00;;;;;15.25;100.00;97664.28;5051073;28;45251;-74
2023/10/20 05:41:06;;;;;;;;;0.00;0.00;;;;;15.25;100.00;97662.41;5061863;28;45601;-74
2023/10/20 05:43:36;;;;;;;;;0.00;0.00;;;;;15.16;100.00;97626.22;5072163;28;45604;-74
2023/10/20 05:46:02;;;;;;;;;1.00;0.00;;;;;15.23;100.00;97643.13;5067195;27;45495;-74
2023/10/20 05:48:27;;;;;;;;;0.00;0.00;;;;;15.36;100.00;97654.00;5062152;28;45281;-74
2023/10/20 05:51:00;;;;;;;;;0.00;0.00;;;;;15.27;100.00;97643.59;5056576;28;45509;-73
2023/10/20 05:53:29;;;;;;;;;0.00;0.00;;;;;15.30;100.00;97660.06;5051384;28;45436;-75
2023/10/20 05:56:02;;;;;;;;;1.00;0.00;;;;;15.30;100.00;97662.72;5059623;28;45332;-74
2023/10/20 05:58:33;;;;;;;;;1.33;1.00;;;;;15.42;100.00;97679.91;5064596;28;45582;-76
2023/10/20 06:01:05;;;;;;;;;0.00;0.00;;;;;15.31;100.00;97661.72;5077771;28;45315;-75
2023/10/20 06:03:30;;;;;;;;;0.00;0.00;;;;;15.41;100.00;97686.25;5072904;28;45320;-75
2023/10/20 06:06:00;;;;;;;;;1.33;0.00;;;;;15.27;100.00;97662.25;5066429;28;45297;-75
2023/10/20 06:08:27;;;;;;;;;0.00;0.00;;;;;15.29;100.00;97669.03;5062738;28;45372;-75
2023/10/20 06:10:53;;;;;;;;;1.00;0.00;;;;;15.18;100.00;97660.66;5064410;28;45510;-76
2023/10/20 06:13:18;;;;;;;;;0.67;0.67;;;;;15.25;100.00;97678.38;5056651;28;46325;-76
2023/10/20 06:15:44;;;;;;;;;0.00;0.00;;;;;15.32;100.00;97692.66;5074473;28;45297;-76
2023/10/20 06:18:10;;;;;;;;;1.67;0.67;;;;;15.38;100.00;97693.78;5077894;28;45464;-76
2023/10/20 06:20:39;;;;;;;;;1.33;1.00;;;;;15.36;100.00;97677.97;5078087;28;45288;-76
2023/10/20 06:23:04;;;;;;;;;1.00;1.00;;;;;15.33;100.00;97683.66;5062213;28;46449;-76
2023/10/20 06:25:31;;;;;;;;;2.00;1.00;;;;;15.38;100.00;97691.13;5073939;28;45344;-77
2023/10/20 06:27:56;;;;;;;;;1.00;1.00;;;;;15.27;100.00;97680.88;5064555;28;45568;-77
2023/10/20 06:30:22;;;;;;;;;2.67;1.00;;;;;15.36;100.00;97685.97;5046466;28;45506;-77
2023/10/20 06:33:16;;;;;;;;;1.00;1.00;;;;;15.41;100.00;97688.09;5076338;28;46014;-77
2023/10/20 06:35:52;;;;;;;;;1.00;1.00;;;;;15.34;100.00;97684.50;5054843;28;45640;-76
2023/10/20 06:38:44;;;;;;;;;1.33;1.00;;;;;15.41;100.00;97690.78;5070975;27;45482;-76
2023/10/20 06:41:11;;;;;;;;;1.00;1.00;;;;;15.31;100.00;97674.19;5068258;28;45470;-76
2023/10/20 06:43:36;;;;;;;;;1.00;1.00;;;;;15.08;100.00;97653.72;5058946;28;47071;-77
2023/10/20 06:46:05;;;;;;;;;1.33;1.33;;;;;15.02;100.00;97641.13;5070470;27;45478;-76
2023/10/20 06:48:30;;;;;;;;;1.00;1.00;;;;;14.99;100.00;97628.16;5062797;28;45470;-75
2023/10/20 06:50:56;;;;;;;;;1.00;1.00;;;;;15.31;100.00;97676.88;5071956;27;45389;-75
2023/10/20 06:53:25;;;;;;;;;1.00;1.00;;;;;15.09;100.00;97655.38;5072176;28;45345;-76
2023/10/20 06:55:50;;;;;;;;;1.00;1.00;;;;;15.09;100.00;97647.41;5059522;28;45367;-75
2023/10/20 06:58:19;;;;;;;;;1.00;1.00;;;;;15.25;100.00;97698.88;5079304;28;45473;-75
2023/10/20 07:00:45;;;;;;;;;2.00;2.00;;;;;15.30;100.00;97700.00;5073487;28;45721;-75
2023/10/20 07:03:11;;;;;;;;;1.00;1.00;;;;;15.29;100.00;97703.66;5070916;28;45603;-75
2023/10/20 07:05:37;;;;;;;;;2.00;2.00;;;;;15.20;100.00;97690.56;5076018;27;45347;-76
2023/10/20 07:08:04;;;;;;;;;0.33;0.33;;;;;15.14;100.00;97692.13;5051519;28;45405;-76
2023/10/20 07:10:39;;;;;;;;;1.00;1.00;;;;;15.16;100.00;97702.59;5065960;28;45436;-75
2023/10/20 07:13:08;;;;;;;;;1.00;1.00;;;;;15.33;100.00;97720.09;5059742;28;46070;-75
2023/10/20 07:15:35;;;;;;;;;2.00;1.00;;;;;15.30;100.00;97709.81;5077708;28;45409;-76
2023/10/20 07:18:01;;;;;;;;;1.33;1.33;;;;;15.30;100.00;97707.16;5061984;28;45316;-75
2023/10/20 07:20:26;;;;;;;;;5.67;2.33;;;;;15.22;100.00;97694.72;5046190;28;45641;-75
2023/10/20 07:22:52;;;;;;;;;1.67;1.67;;;;;15.31;100.00;97699.00;5064536;28;45213;-75
2023/10/20 07:25:17;;;;;;;;;3.00;1.67;;;;;15.41;100.00;97730.72;5058580;28;45348;-75
2023/10/20 07:27:43;;;;;;;;;3.00;2.00;;;;;15.42;100.00;97729.69;5070024;28;45429;-76
2023/10/20 07:30:10;;;;;;;;;2.00;2.00;;;;;15.37;100.00;97721.41;5046630;28;45561;-75
2023/10/20 07:32:36;;;;;;;;;3.00;1.00;;;;;15.36;100.00;97709.09;5063580;28;45457;-75
2023/10/20 07:35:03;;;;;;;;;1.67;1.67;;;;;15.35;100.00;97710.94;5071343;28;45492;-75
2023/10/20 07:37:29;;;;;;;;;3.33;2.00;;;;;15.32;100.00;97699.81;5076820;28;45391;-75
2023/10/20 07:39:54;;;;;;;;;2.33;2.33;;;;;15.36;100.00;97707.28;5075626;28;45516;-75
2023/10/20 07:42:19;;;;;;;;;3.00;3.00;;;;;15.36;100.00;97701.09;5069165;28;45508;-74
2023/10/20 07:44:45;;;;;;;;;2.00;2.00;;;;;15.45;100.00;97711.53;5076422;27;45375;-74
2023/10/20 07:47:11;;;;;;;;;2.67;2.67;;;;;15.37;100.00;97708.94;5065540;28;45501;-74
2023/10/20 07:49:37;;;;;;;;;4.33;4.33;;;;;15.16;100.00;97692.75;5066466;28;45522;-74
2023/10/20 07:52:03;;;;;;;;;3.33;3.33;;;;;15.40;100.00;97729.88;5072258;28;45296;-74
2023/10/20 07:54:29;;;;;;;;;3.00;3.00;;;;;15.42;100.00;97738.50;5068224;28;45245;-74
2023/10/20 07:56:55;;;;;;;;;3.00;3.00;;;;;15.55;100.00;97772.56;5065286;28;45709;-75
2023/10/20 07:59:21;;;;;;;;;3.00;3.00;;;;;15.54;100.00;97746.97;5079445;28;45404;-75
2023/10/20 08:01:46;;;;;;;;;2.67;2.67;;;;;15.61;100.00;97740.72;5065638;28;50493;-75
2023/10/20 08:04:11;;;;;;;;;2.67;1.67;;;;;15.71;100.00;97750.31;5072164;28;45314;-75
2023/10/20 08:06:36;;;;;;;;;2.67;2.67;;;;;15.76;100.00;97756.78;5072589;28;45513;-74
2023/10/20 08:09:02;;;;;;;;;2.00;2.00;;;;;15.73;100.00;97735.81;5071646;28;45463;-75
2023/10/20 08:11:28;;;;;;;;;2.00;2.00;;;;;15.74;100.00;97729.47;5054332;28;45499;-75
2023/10/20 08:13:55;;;;;;;;;2.33;2.33;;;;;15.76;100.00;97742.63;5041318;28;45310;-75
2023/10/20 08:16:21;;;;;;;;;1.00;1.00;;;;;15.90;100.00;97763.16;5066427;28;45434;-75
2023/10/20 08:18:47;;;;;;;;;1.67;1.67;;;;;15.79;100.00;97760.91;5066659;28;45304;-75
2023/10/20 08:21:12;;;;;;;;;1.33;1.33;;;;;15.80;100.00;97755.41;5072342;28;45347;-75
2023/10/20 08:23:38;;;;;;;;;2.00;2.00;;;;;15.87;100.00;97764.31;5073564;28;45311;-75
2023/10/20 08:26:05;;;;;;;;;2.67;2.00;;;;;15.91;100.00;97773.63;5059371;28;45384;-75
2023/10/20 08:28:30;;;;;;;;;3.00;2.67;;;;;15.93;100.00;97781.47;5067556;28;45476;-76
2023/10/20 08:31:06;;;;;;;;;3.67;1.00;;;;;15.96;100.00;97781.94;5054273;28;47401;-77
2023/10/20 08:33:31;;;;;;;;;1.00;1.00;;;;;16.00;100.00;97785.88;5056523;28;45415;-76
2023/10/20 08:35:56;;;;;;;;;4.33;2.33;;;;;15.86;100.00;97757.34;5058809;28;45460;-76
2023/10/20 08:38:22;;;;;;;;;1.00;1.00;;;;;15.94;100.00;97745.78;5066362;28;52955;-76
2023/10/20 08:40:47;;;;;;;;;3.00;2.00;;;;;16.10;100.00;97762.47;5063772;28;46740;-76
2023/10/20 08:43:13;;;;;;;;;2.33;1.67;;;;;16.16;100.00;97769.72;5072383;28;49477;-77
2023/10/20 08:45:39;;;;;;;;;3.67;2.00;;;;;16.34;100.00;97781.91;5080337;27;45433;-76
2023/10/20 08:48:06;;;;;;;;;2.00;2.00;;;;;16.38;100.00;97781.38;5070288;28;46654;-76
2023/10/20 08:50:32;;;;;;;;;1.00;1.00;;;;;16.36;100.00;97763.88;5069666;28;47661;-76
2023/10/20 08:53:01;;;;;;;;;2.67;2.00;;;;;16.49;100.00;97774.75;5065171;28;45352;-75
2023/10/20 08:55:27;;;;;;;;;1.00;1.00;;;;;16.47;100.00;97766.09;5058266;28;45370;-76
2023/10/20 08:57:52;;;;;;;;;1.33;1.33;;;;;16.56;100.00;97771.19;5067220;28;45352;-76
2023/10/20 09:00:21;;;;;;;;;3.67;2.00;;;;;16.62;100.00;97781.13;5070139;28;45970;-76
2023/10/20 09:02:49;;;;;;;;;2.00;2.00;;;;;16.61;100.00;97773.31;5071611;28;45361;-76
2023/10/20 09:05:22;;;;;;;;;1.00;1.00;;;;;16.69;100.00;97783.88;5054736;28;45423;-76
2023/10/20 09:07:54;;;;;;;;;2.00;2.00;;;;;16.58;100.00;97771.00;5072691;28;45469;-76
2023/10/20 09:10:20;;;;;;;;;3.33;1.00;;;;;16.70;100.00;97785.53;5072294;28;46153;-76
2023/10/20 09:12:45;;;;;;;;;2.67;2.00;;;;;16.66;100.00;97800.25;5058344;28;45319;-76
2023/10/20 09:15:11;;;;;;;;;1.67;1.00;;;;;16.60;100.00;97796.50;5054502;28;45261;-76
2023/10/20 09:17:37;;;;;;;;;1.67;1.67;;;;;16.48;100.00;97779.25;5076740;28;45580;-76
2023/10/20 09:20:14;;;;;;;;;2.00;2.00;;;;;16.61;100.00;97797.31;5077635;28;45470;-76
2023/10/20 09:22:39;;;;;;;;;2.00;1.00;;;;;16.60;100.00;97798.31;5058181;28;45424;-76
2023/10/20 09:25:10;;;;;;;;;1.00;1.00;;;;;16.59;100.00;97802.00;5074252;28;45385;-76
2023/10/20 09:27:37;;;;;;;;;3.00;1.67;;;;;16.50;100.00;97792.41;5083018;28;45306;-76
2023/10/20 09:30:14;;;;;;;;;6.00;2.00;;;;;16.45;100.00;97781.47;5081553;28;45270;-75
2023/10/20 09:32:39;;;;;;;;;1.00;1.00;;;;;16.63;100.00;97804.13;5062345;28;45388;-75
2023/10/20 09:35:06;;;;;;;;;3.00;1.00;;;;;16.65;100.00;97782.59;5063733;28;45529;-76
2023/10/20 09:37:31;;;;;;;;;4.00;3.00;;;;;16.84;100.00;97808.75;5065303;28;45388;-76
2023/10/20 09:40:05;;;;;;;;;4.00;1.00;;;;;16.91;100.00;97806.16;5070894;28;46223;-76
2023/10/20 09:42:57;;;;;;;;;2.00;2.00;;;;;16.86;100.00;97789.84;5055284;28;45497;-77
2023/10/20 09:45:32;;;;;;;;;4.00;2.00;;;;;16.79;100.00;97772.91;5080063;28;45334;-75
2023/10/20 09:48:03;;;;;;;;;2.00;2.00;;;;;17.11;100.00;97801.91;5067552;28;45371;-76
2023/10/20 09:50:31;;;;;;;;;3.33;2.00;;;;;17.21;100.00;97801.63;5070157;28;47581;-76
2023/10/20 09:52:58;;;;;;;;;3.67;2.67;;;;;17.32;100.00;97809.13;5061265;28;45242;-76
2023/10/20 09:55:24;;;;;;;;;2.00;1.00;;;;;17.34;100.00;97801.78;5070465;28;45363;-76
2023/10/20 09:57:50;;;;;;;;;4.33;3.33;;;;;17.45;100.00;97812.78;5072483;28;45598;-75
2023/10/20 10:00:32;;;;;;;;;3.00;3.00;;;;;17.52;100.00;97820.88;5052847;28;46412;-76
2023/10/20 10:02:59;;;;;;;;;2.00;2.00;;;;;17.52;100.00;97813.69;5063525;28;45480;-76
2023/10/20 10:05:24;;;;;;;;;3.00;2.00;;;;;17.60;100.00;97831.50;5057473;28;45558;-77
2023/10/20 10:08:03;;;;;;;;;2.67;2.67;;;;;17.58;100.00;97818.31;5070976;28;45640;-77
2023/10/20 10:10:28;;;;;;;;;2.00;2.00;;;;;17.67;100.00;97835.03;5055367;28;46460;-76
2023/10/20 10:12:59;;;;;;;;;4.67;3.00;;;;;17.70;100.00;97832.00;5081691;28;45352;-77
2023/10/20 10:15:36;;;;;;;;;3.67;1.67;;;;;17.80;100.00;97839.72;5067904;28;45364;-76
2023/10/20 10:18:09;;;;;;;;;3.33;2.33;;;;;17.82;100.00;97813.63;5076104;28;45379;-76
2023/10/20 10:20:43;;;;;;;;;3.67;1.67;;;;;17.97;100.00;97841.09;5044691;28;45668;-76
2023/10/20 10:23:14;;;;;;;;;0.67;0.67;;;;;17.77;100.00;97806.16;5051905;28;45309;-76
2023/10/20 10:25:42;;;;;;;;;3.33;3.33;;;;;17.91;100.00;97837.34;5076347;28;45613;-76
2023/10/20 10:28:18;;;;;;;;;3.00;3.00;;;;;17.84;100.00;97847.16;5077182;28;45304;-76
2023/10/20 10:30:47;;;;;;;;;2.33;2.00;;;;;17.73;100.00;97846.84;5062393;28;45442;-77
2023/10/20 10:33:13;;;;;;;;;3.00;3.00;;;;;17.49;100.00;97838.13;5073049;28;45351;-76
2023/10/20 10:35:39;;;;;;;;;1.33;1.33;;;;;17.42;100.00;97834.53;5072786;28;45521;-77
2023/10/20 10:38:17;;;;;;;;;2.00;2.00;;;;;17.31;100.00;97827.00;5060789;28;45542;-76
2023/10/20 10:40:44;;;;;;;;;3.33;2.00;;;;;17.38;100.00;97845.78;5075334;28;46531;-76
2023/10/20 10:43:14;;;;;;;;;4.33;3.00;;;;;17.33;100.00;97843.69;5074321;28;45427;-77
2023/10/20 10:45:40;;;;;;;;;2.33;2.33;;;;;17.39;100.00;97842.09;5074994;27;45528;-77
2023/10/20 10:48:06;;;;;;;;;3.67;3.67;;;;;17.45;100.00;97846.69;5063659;28;45422;-77
2023/10/20 10:50:32;;;;;;;;;5.00;3.67;;;;;17.41;100.00;97862.25;5060045;28;47636;-77
2023/10/20 10:52:58;;;;;;;;;8.33;3.00;;;;;17.34;100.00;97847.19;5074819;28;45376;-77
2023/10/20 10:55:24;;;;;;;;;5.33;4.00;;;;;17.33;100.00;97845.53;5057586;28;45307;-77
2023/10/20 10:57:51;;;;;;;;;4.00;2.67;;;;;17.33;100.00;97854.38;5066310;28;45450;-77
2023/10/20 11:00:16;;;;;;;;;3.00;2.33;;;;;17.36;100.00;97858.50;5053823;28;46347;-77
2023/10/20 11:02:45;;;;;;;;;6.33;3.67;;;;;17.39;100.00;97858.97;5079937;28;45386;-77
2023/10/20 11:05:12;;;;;;;;;3.33;2.00;;;;;17.47;100.00;97858.03;5061512;28;45324;-77
2023/10/20 11:07:37;;;;;;;;;3.33;2.67;;;;;17.57;100.00;97863.94;5060935;28;45460;-77
2023/10/20 11:10:04;;;;;;;;;1.67;1.67;;;;;17.71;100.00;97844.34;5079768;28;46177;-77
2023/10/20 11:12:31;;;;;;;;;7.33;3.33;;;;;18.02;100.00;97868.97;5064174;28;45468;-77
2023/10/20 11:14:59;;;;;;;;;3.33;2.33;;;;;18.10;100.00;97854.59;5047270;28;45400;-78
2023/10/20 11:17:24;;;;;;;;;3.67;2.33;;;;;18.25;100.00;97857.22;5067504;28;45527;-77
2023/10/20 11:19:50;;;;;;;;;2.33;2.00;;;;;18.31;100.00;97851.94;5064687;28;46076;-77
2023/10/20 11:22:16;;;;;;;;;2.33;2.33;;;;;18.26;100.00;97851.66;5047707;28;45292;-77
2023/10/20 11:24:42;;;;;;;;;2.00;2.00;;;;;18.24;100.00;97845.69;5061124;28;45327;-77
2023/10/20 11:27:08;;;;;;;;;2.67;2.33;;;;;18.15;100.00;97844.19;5072722;28;45445;-78
2023/10/20 11:29:36;;;;;;;;;4.00;4.00;;;;;18.10;100.00;97846.59;5072836;28;45410;-77
2023/10/20 11:32:06;;;;;;;;;3.67;2.67;;;;;18.05;100.00;97841.00;5059822;28;45305;-77
2023/10/20 11:34:32;;;;;;;;;4.33;3.33;;;;;18.04;100.00;97850.84;5056717;28;45518;-78
2023/10/20 11:36:58;;;;;;;;;4.00;3.00;;;;;17.87;100.00;97832.56;5071500;28;45442;-77
2023/10/20 11:39:27;;;;;;;;;5.33;4.00;;;;;17.87;100.00;97821.88;5065604;28;46046;-78
2023/10/20 11:41:56;;;;;;;;;2.33;2.33;;;;;18.02;100.00;97846.72;5075356;28;45437;-78
2023/10/20 11:44:24;;;;;;;;;4.67;3.33;;;;;18.01;100.00;97826.34;5075978;27;45368;-77
2023/10/20 11:46:52;;;;;;;;;0.33;0.33;;;;;18.03;100.00;97825.13;5070034;28;45284;-77
2023/10/20 11:49:18;;;;;;;;;3.33;2.33;;;;;18.08;100.00;97827.22;5042043;28;48543;-77